sensor_id;sensor_type;location;lat;lon;timestamp;P1;durP1;ratioP1;P2;durP2;ratioP2
15677;SDS011;7939;50.814;6.368;2022-07-03T00:01:47;1.88;;;0.93;;
15677;SDS011;7939;50.814;6.368;2022-07-03T00:04:13;2.28;;;1.30;;
15677;SDS011;7939;50.814;6.368;2022-07-03T00:06:40;1.55;;;1.25;;
15677;SDS011;7939;50.814;6.368;2022-07-03T00:09:07;2.53;;;1.08;;
15677;SDS011;7939;50.814;6.368;2022-07-03T00:11:34;1.98;;;1.25;;
15677;SDS011;7939;50.814;6.368;2022-07-03T00:14:00;2.42;;;1.10;;
15677;SDS011;7939;50.814;6.368;2022-07-03T00:16:27;1.85;;;1.20;;
15677;SDS011;7939;50.814;6.368;2022-07-03T00:18:55;1.92;;;1.48;;
15677;SDS011;7939;50.814;6.368;2022-07-03T00:21:24;1.90;;;1.13;;
15677;SDS011;7939;50.814;6.368;2022-07-03T00:23:53;3.03;;;1.40;;
15677;SDS011;7939;50.814;6.368;2022-07-03T00:26:22;1.63;;;1.00;;
15677;SDS011;7939;50.814;6.368;2022-07-03T00:28:50;1.25;;;1.15;;
15677;SDS011;7939;50.814;6.368;2022-07-03T00:31:19;1.13;;;1.02;;
15677;SDS011;7939;50.814;6.368;2022-07-03T00:33:47;4.00;;;1.50;;
15677;SDS011;7939;50.814;6.368;2022-07-03T00:36:15;1.00;;;1.00;;
15677;SDS011;7939;50.814;6.368;2022-07-03T00:38:43;1.40;;;1.10;;
15677;SDS011;7939;50.814;6.368;2022-07-03T00:41:22;1.45;;;1.10;;
15677;SDS011;7939;50.814;6.368;2022-07-03T00:43:51;1.38;;;1.10;;
15677;SDS011;7939;50.814;6.368;2022-07-03T00:46:17;2.13;;;1.10;;
15677;SDS011;7939;50.814;6.368;2022-07-03T00:48:47;1.30;;;0.90;;
15677;SDS011;7939;50.814;6.368;2022-07-03T00:51:18;1.35;;;1.13;;
15677;SDS011;7939;50.814;6.368;2022-07-03T00:53:47;2.45;;;1.27;;
15677;SDS011;7939;50.814;6.368;2022-07-03T00:56:16;1.80;;;0.88;;
15677;SDS011;7939;50.814;6.368;2022-07-03T00:58:45;1.48;;;1.23;;
15677;SDS011;7939;50.814;6.368;2022-07-03T01:01:14;1.50;;;1.15;;
15677;SDS011;7939;50.814;6.368;2022-07-03T01:03:43;1.27;;;1.10;;
15677;SDS011;7939;50.814;6.368;2022-07-03T01:06:13;0.80;;;0.80;;
15677;SDS011;7939;50.814;6.368;2022-07-03T01:08:43;1.42;;;1.00;;
15677;SDS011;7939;50.814;6.368;2022-07-03T01:11:14;1.45;;;1.10;;
15677;SDS011;7939;50.814;6.368;2022-07-03T01:13:50;2.03;;;1.10;;
15677;SDS011;7939;50.814;6.368;2022-07-03T01:16:27;1.73;;;1.05;;
15677;SDS011;7939;50.814;6.368;2022-07-03T01:18:58;1.15;;;1.05;;
15677;SDS011;7939;50.814;6.368;2022-07-03T01:21:36;1.90;;;1.30;;
15677;SDS011;7939;50.814;6.368;2022-07-03T01:24:28;1.02;;;0.90;;
15677;SDS011;7939;50.814;6.368;2022-07-03T01:27:22;1.48;;;1.13;;
15677;SDS011;7939;50.814;6.368;2022-07-03T01:29:56;3.58;;;1.38;;
15677;SDS011;7939;50.814;6.368;2022-07-03T01:32:32;1.73;;;1.33;;
15677;SDS011;7939;50.814;6.368;2022-07-03T01:35:00;1.15;;;0.98;;
15677;SDS011;7939;50.814;6.368;2022-07-03T01:37:29;1.15;;;1.05;;
15677;SDS011;7939;50.814;6.368;2022-07-03T01:39:58;1.48;;;1.30;;
15677;SDS011;7939;50.814;6.368;2022-07-03T01:42:25;1.75;;;1.00;;
15677;SDS011;7939;50.814;6.368;2022-07-03T01:44:55;2.28;;;1.55;;
15677;SDS011;7939;50.814;6.368;2022-07-03T01:47:25;1.10;;;1.10;;
15677;SDS011;7939;50.814;6.368;2022-07-03T01:49:53;1.17;;;1.02;;
15677;SDS011;7939;50.814;6.368;2022-07-03T01:52:21;1.98;;;1.30;;
15677;SDS011;7939;50.814;6.368;2022-07-03T01:54:48;1.52;;;0.95;;
15677;SDS011;7939;50.814;6.368;2022-07-03T01:57:16;1.80;;;1.23;;
15677;SDS011;7939;50.814;6.368;2022-07-03T01:59:43;1.85;;;1.02;;
15677;SDS011;7939;50.814;6.368;2022-07-03T02:02:13;2.80;;;1.20;;
15677;SDS011;7939;50.814;6.368;2022-07-03T02:04:44;1.92;;;1.17;;
15677;SDS011;7939;50.814;6.368;2022-07-03T02:07:21;1.90;;;1.02;;
15677;SDS011;7939;50.814;6.368;2022-07-03T02:09:59;1.27;;;1.17;;
15677;SDS011;7939;50.814;6.368;2022-07-03T02:12:32;2.20;;;1.20;;
15677;SDS011;7939;50.814;6.368;2022-07-03T02:15:07;1.77;;;1.35;;
15677;SDS011;7939;50.814;6.368;2022-07-03T02:17:36;1.00;;;1.00;;
15677;SDS011;7939;50.814;6.368;2022-07-03T02:20:05;2.15;;;1.00;;
15677;SDS011;7939;50.814;6.368;2022-07-03T02:22:34;1.08;;;0.98;;
15677;SDS011;7939;50.814;6.368;2022-07-03T02:25:05;1.15;;;0.93;;
15677;SDS011;7939;50.814;6.368;2022-07-03T02:27:37;1.52;;;1.27;;
15677;SDS011;7939;50.814;6.368;2022-07-03T02:30:11;1.13;;;1.10;;
15677;SDS011;7939;50.814;6.368;2022-07-03T02:32:40;1.45;;;1.35;;
15677;SDS011;7939;50.814;6.368;2022-07-03T02:35:11;1.63;;;1.00;;
15677;SDS011;7939;50.814;6.368;2022-07-03T02:37:44;1.50;;;1.20;;
15677;SDS011;7939;50.814;6.368;2022-07-03T02:40:22;1.02;;;0.93;;
15677;SDS011;7939;50.814;6.368;2022-07-03T02:43:02;1.80;;;1.05;;
15677;SDS011;7939;50.814;6.368;2022-07-03T02:45:44;1.88;;;1.23;;
15677;SDS011;7939;50.814;6.368;2022-07-03T02:48:22;1.40;;;1.05;;
15677;SDS011;7939;50.814;6.368;2022-07-03T02:50:54;1.00;;;0.90;;
15677;SDS011;7939;50.814;6.368;2022-07-03T02:53:28;1.10;;;1.00;;
15677;SDS011;7939;50.814;6.368;2022-07-03T02:56:03;1.35;;;1.00;;
15677;SDS011;7939;50.814;6.368;2022-07-03T02:58:50;1.60;;;1.08;;
15677;SDS011;7939;50.814;6.368;2022-07-03T03:01:30;1.75;;;0.98;;
15677;SDS011;7939;50.814;6.368;2022-07-03T03:04:09;1.45;;;1.20;;
15677;SDS011;7939;50.814;6.368;2022-07-03T03:06:41;1.80;;;1.17;;
15677;SDS011;7939;50.814;6.368;2022-07-03T03:09:14;1.83;;;1.17;;
15677;SDS011;7939;50.814;6.368;2022-07-03T03:11:46;1.85;;;1.20;;
15677;SDS011;7939;50.814;6.368;2022-07-03T03:14:14;2.08;;;1.20;;
15677;SDS011;7939;50.814;6.368;2022-07-03T03:16:47;1.48;;;1.20;;
15677;SDS011;7939;50.814;6.368;2022-07-03T03:19:14;4.32;;;1.63;;
15677;SDS011;7939;50.814;6.368;2022-07-03T03:21:52;1.85;;;1.23;;
15677;SDS011;7939;50.814;6.368;2022-07-03T03:24:23;1.98;;;1.20;;
15677;SDS011;7939;50.814;6.368;2022-07-03T03:26:51;1.80;;;1.17;;
15677;SDS011;7939;50.814;6.368;2022-07-03T03:29:18;1.95;;;1.40;;
15677;SDS011;7939;50.814;6.368;2022-07-03T03:31:44;1.85;;;1.30;;
15677;SDS011;7939;50.814;6.368;2022-07-03T03:34:12;2.33;;;1.30;;
15677;SDS011;7939;50.814;6.368;2022-07-03T03:36:40;1.92;;;1.30;;
15677;SDS011;7939;50.814;6.368;2022-07-03T03:39:07;1.13;;;1.10;;
15677;SDS011;7939;50.814;6.368;2022-07-03T03:41:33;1.50;;;1.40;;
15677;SDS011;7939;50.814;6.368;2022-07-03T03:44:00;1.67;;;1.55;;
15677;SDS011;7939;50.814;6.368;2022-07-03T03:46:27;1.88;;;1.40;;
15677;SDS011;7939;50.814;6.368;2022-07-03T03:48:53;2.33;;;1.25;;
15677;SDS011;7939;50.814;6.368;2022-07-03T03:51:21;1.67;;;1.20;;
15677;SDS011;7939;50.814;6.368;2022-07-03T03:53:48;1.50;;;1.40;;
15677;SDS011;7939;50.814;6.368;2022-07-03T03:56:15;1.23;;;1.13;;
15677;SDS011;7939;50.814;6.368;2022-07-03T03:58:42;2.42;;;1.30;;
15677;SDS011;7939;50.814;6.368;2022-07-03T04:01:10;1.38;;;1.08;;
15677;SDS011;7939;50.814;6.368;2022-07-03T04:03:39;3.35;;;1.23;;
15677;SDS011;7939;50.814;6.368;2022-07-03T04:06:06;2.25;;;1.83;;
15677;SDS011;7939;50.814;6.368;2022-07-03T04:08:35;4.20;;;1.40;;
15677;SDS011;7939;50.814;6.368;2022-07-03T04:11:02;4.18;;;1.58;;
15677;SDS011;7939;50.814;6.368;2022-07-03T04:13:29;1.75;;;1.65;;
15677;SDS011;7939;50.814;6.368;2022-07-03T04:15:56;3.08;;;1.40;;
15677;SDS011;7939;50.814;6.368;2022-07-03T04:18:22;2.55;;;1.52;;
15677;SDS011;7939;50.814;6.368;2022-07-03T04:20:50;1.60;;;1.50;;
15677;SDS011;7939;50.814;6.368;2022-07-03T04:23:17;2.67;;;1.20;;
15677;SDS011;7939;50.814;6.368;2022-07-03T04:25:45;3.45;;;1.40;;
15677;SDS011;7939;50.814;6.368;2022-07-03T04:28:11;1.08;;;1.02;;
15677;SDS011;7939;50.814;6.368;2022-07-03T04:30:38;1.60;;;1.23;;
15677;SDS011;7939;50.814;6.368;2022-07-03T04:33:05;1.55;;;1.20;;
15677;SDS011;7939;50.814;6.368;2022-07-03T04:35:32;2.90;;;1.35;;
15677;SDS011;7939;50.814;6.368;2022-07-03T04:37:59;1.63;;;1.13;;
15677;SDS011;7939;50.814;6.368;2022-07-03T04:40:26;1.70;;;1.48;;
15677;SDS011;7939;50.814;6.368;2022-07-03T04:42:54;1.75;;;1.10;;
15677;SDS011;7939;50.814;6.368;2022-07-03T04:45:21;1.75;;;1.27;;
15677;SDS011;7939;50.814;6.368;2022-07-03T04:47:48;2.42;;;1.40;;
15677;SDS011;7939;50.814;6.368;2022-07-03T04:50:14;1.88;;;1.27;;
15677;SDS011;7939;50.814;6.368;2022-07-03T04:52:41;1.65;;;1.20;;
15677;SDS011;7939;50.814;6.368;2022-07-03T04:55:07;2.17;;;1.15;;
15677;SDS011;7939;50.814;6.368;2022-07-03T04:57:35;1.20;;;1.10;;
15677;SDS011;7939;50.814;6.368;2022-07-03T05:00:04;1.42;;;1.33;;
15677;SDS011;7939;50.814;6.368;2022-07-03T05:02:31;2.35;;;1.42;;
15677;SDS011;7939;50.814;6.368;2022-07-03T05:04:58;2.72;;;1.30;;
15677;SDS011;7939;50.814;6.368;2022-07-03T05:07:25;2.13;;;1.70;;
15677;SDS011;7939;50.814;6.368;2022-07-03T05:09:52;6.22;;;2.20;;
15677;SDS011;7939;50.814;6.368;2022-07-03T05:12:19;2.38;;;1.55;;
15677;SDS011;7939;50.814;6.368;2022-07-03T05:14:45;2.63;;;1.60;;
15677;SDS011;7939;50.814;6.368;2022-07-03T05:17:14;2.78;;;1.50;;
15677;SDS011;7939;50.814;6.368;2022-07-03T05:19:43;2.20;;;1.75;;
15677;SDS011;7939;50.814;6.368;2022-07-03T05:22:09;2.67;;;1.58;;
15677;SDS011;7939;50.814;6.368;2022-07-03T05:24:36;2.10;;;1.60;;
15677;SDS011;7939;50.814;6.368;2022-07-03T05:27:03;1.98;;;1.60;;
15677;SDS011;7939;50.814;6.368;2022-07-03T05:29:31;3.17;;;1.70;;
15677;SDS011;7939;50.814;6.368;2022-07-03T05:31:58;3.60;;;1.75;;
15677;SDS011;7939;50.814;6.368;2022-07-03T05:34:26;4.00;;;2.00;;
15677;SDS011;7939;50.814;6.368;2022-07-03T05:36:52;3.70;;;1.70;;
15677;SDS011;7939;50.814;6.368;2022-07-03T05:39:21;3.88;;;2.03;;
15677;SDS011;7939;50.814;6.368;2022-07-03T05:42:02;2.50;;;2.08;;
15677;SDS011;7939;50.814;6.368;2022-07-03T05:44:29;3.30;;;2.20;;
15677;SDS011;7939;50.814;6.368;2022-07-03T05:46:56;2.85;;;1.95;;
15677;SDS011;7939;50.814;6.368;2022-07-03T05:49:23;2.72;;;2.08;;
15677;SDS011;7939;50.814;6.368;2022-07-03T05:51:51;3.63;;;2.55;;
15677;SDS011;7939;50.814;6.368;2022-07-03T05:54:18;3.20;;;2.60;;
15677;SDS011;7939;50.814;6.368;2022-07-03T05:56:44;2.72;;;2.13;;
15677;SDS011;7939;50.814;6.368;2022-07-03T05:59:11;3.75;;;2.33;;
15677;SDS011;7939;50.814;6.368;2022-07-03T06:01:38;3.97;;;2.35;;
15677;SDS011;7939;50.814;6.368;2022-07-03T06:04:05;2.38;;;2.15;;
15677;SDS011;7939;50.814;6.368;2022-07-03T06:06:32;3.08;;;2.58;;
15677;SDS011;7939;50.814;6.368;2022-07-03T06:09:00;3.15;;;2.28;;
15677;SDS011;7939;50.814;6.368;2022-07-03T06:11:26;4.47;;;2.55;;
15677;SDS011;7939;50.814;6.368;2022-07-03T06:13:53;5.55;;;2.40;;
15677;SDS011;7939;50.814;6.368;2022-07-03T06:16:20;3.35;;;2.10;;
15677;SDS011;7939;50.814;6.368;2022-07-03T06:18:47;3.88;;;2.13;;
15677;SDS011;7939;50.814;6.368;2022-07-03T06:21:14;3.13;;;2.33;;
15677;SDS011;7939;50.814;6.368;2022-07-03T06:23:41;3.15;;;2.20;;
15677;SDS011;7939;50.814;6.368;2022-07-03T06:26:09;5.45;;;2.40;;
15677;SDS011;7939;50.814;6.368;2022-07-03T06:28:39;3.72;;;2.45;;
15677;SDS011;7939;50.814;6.368;2022-07-03T06:31:06;3.92;;;2.25;;
15677;SDS011;7939;50.814;6.368;2022-07-03T06:33:33;2.55;;;2.35;;
15677;SDS011;7939;50.814;6.368;2022-07-03T06:35:59;3.15;;;2.47;;
15677;SDS011;7939;50.814;6.368;2022-07-03T06:38:26;4.85;;;2.60;;
15677;SDS011;7939;50.814;6.368;2022-07-03T06:40:52;5.05;;;2.30;;
15677;SDS011;7939;50.814;6.368;2022-07-03T06:43:20;3.97;;;2.20;;
15677;SDS011;7939;50.814;6.368;2022-07-03T06:45:47;2.47;;;2.17;;
15677;SDS011;7939;50.814;6.368;2022-07-03T06:48:14;4.88;;;2.70;;
15677;SDS011;7939;50.814;6.368;2022-07-03T06:50:41;5.88;;;2.50;;
15677;SDS011;7939;50.814;6.368;2022-07-03T06:53:08;4.43;;;2.53;;
15677;SDS011;7939;50.814;6.368;2022-07-03T06:55:34;3.47;;;2.35;;
15677;SDS011;7939;50.814;6.368;2022-07-03T06:58:01;3.85;;;2.00;;
15677;SDS011;7939;50.814;6.368;2022-07-03T07:00:30;6.55;;;2.30;;
15677;SDS011;7939;50.814;6.368;2022-07-03T07:02:56;3.83;;;2.40;;
15677;SDS011;7939;50.814;6.368;2022-07-03T07:05:23;2.92;;;2.10;;
15677;SDS011;7939;50.814;6.368;2022-07-03T07:07:50;2.25;;;2.05;;
15677;SDS011;7939;50.814;6.368;2022-07-03T07:10:16;3.28;;;2.55;;
15677;SDS011;7939;50.814;6.368;2022-07-03T07:12:43;4.25;;;2.38;;
15677;SDS011;7939;50.814;6.368;2022-07-03T07:15:10;2.63;;;2.20;;
15677;SDS011;7939;50.814;6.368;2022-07-03T07:17:38;3.45;;;2.13;;
15677;SDS011;7939;50.814;6.368;2022-07-03T07:20:05;6.22;;;2.10;;
15677;SDS011;7939;50.814;6.368;2022-07-03T07:22:32;2.58;;;2.38;;
15677;SDS011;7939;50.814;6.368;2022-07-03T07:25:00;3.08;;;2.35;;
15677;SDS011;7939;50.814;6.368;2022-07-03T07:27:27;5.82;;;2.72;;
15677;SDS011;7939;50.814;6.368;2022-07-03T07:29:54;3.08;;;1.83;;
15677;SDS011;7939;50.814;6.368;2022-07-03T07:32:20;3.67;;;2.60;;
15677;SDS011;7939;50.814;6.368;2022-07-03T07:34:48;3.20;;;2.00;;
15677;SDS011;7939;50.814;6.368;2022-07-03T07:37:15;2.97;;;2.40;;
15677;SDS011;7939;50.814;6.368;2022-07-03T07:39:42;3.40;;;2.17;;
15677;SDS011;7939;50.814;6.368;2022-07-03T07:42:08;5.15;;;1.95;;
15677;SDS011;7939;50.814;6.368;2022-07-03T07:44:35;3.25;;;1.85;;
15677;SDS011;7939;50.814;6.368;2022-07-03T07:47:02;4.68;;;2.05;;
15677;SDS011;7939;50.814;6.368;2022-07-03T07:49:28;3.17;;;1.85;;
15677;SDS011;7939;50.814;6.368;2022-07-03T07:51:57;2.25;;;1.75;;
15677;SDS011;7939;50.814;6.368;2022-07-03T07:54:23;3.83;;;1.70;;
15677;SDS011;7939;50.814;6.368;2022-07-03T07:56:50;3.28;;;1.60;;
15677;SDS011;7939;50.814;6.368;2022-07-03T07:59:16;2.53;;;1.65;;
15677;SDS011;7939;50.814;6.368;2022-07-03T08:01:43;2.15;;;1.95;;
15677;SDS011;7939;50.814;6.368;2022-07-03T08:04:27;3.47;;;1.40;;
15677;SDS011;7939;50.814;6.368;2022-07-03T08:07:13;4.13;;;2.17;;
15677;SDS011;7939;50.814;6.368;2022-07-03T08:09:40;5.25;;;2.08;;
15677;SDS011;7939;50.814;6.368;2022-07-03T08:12:06;3.95;;;1.98;;
15677;SDS011;7939;50.814;6.368;2022-07-03T08:14:33;3.25;;;2.20;;
15677;SDS011;7939;50.814;6.368;2022-07-03T08:16:59;3.60;;;1.70;;
15677;SDS011;7939;50.814;6.368;2022-07-03T08:19:26;4.10;;;1.80;;
15677;SDS011;7939;50.814;6.368;2022-07-03T08:21:53;3.47;;;2.03;;
15677;SDS011;7939;50.814;6.368;2022-07-03T08:24:21;4.90;;;2.00;;
15677;SDS011;7939;50.814;6.368;2022-07-03T08:26:48;4.07;;;1.85;;
15677;SDS011;7939;50.814;6.368;2022-07-03T08:29:14;2.92;;;2.00;;
15677;SDS011;7939;50.814;6.368;2022-07-03T08:31:41;2.63;;;1.80;;
15677;SDS011;7939;50.814;6.368;2022-07-03T08:34:07;3.75;;;2.05;;
15677;SDS011;7939;50.814;6.368;2022-07-03T08:36:39;2.05;;;1.65;;
15677;SDS011;7939;50.814;6.368;2022-07-03T08:39:06;2.35;;;2.15;;
15677;SDS011;7939;50.814;6.368;2022-07-03T08:41:36;3.67;;;1.80;;
15677;SDS011;7939;50.814;6.368;2022-07-03T08:44:03;2.83;;;2.22;;
15677;SDS011;7939;50.814;6.368;2022-07-03T08:46:31;2.65;;;2.20;;
15677;SDS011;7939;50.814;6.368;2022-07-03T08:48:59;2.70;;;2.00;;
15677;SDS011;7939;50.814;6.368;2022-07-03T08:51:26;3.42;;;1.83;;
15677;SDS011;7939;50.814;6.368;2022-07-03T08:53:53;4.65;;;1.60;;
15677;SDS011;7939;50.814;6.368;2022-07-03T08:56:20;2.25;;;1.50;;
15677;SDS011;7939;50.814;6.368;2022-07-03T08:58:49;3.75;;;1.73;;
15677;SDS011;7939;50.814;6.368;2022-07-03T09:01:16;2.83;;;2.00;;
15677;SDS011;7939;50.814;6.368;2022-07-03T09:03:44;3.30;;;2.60;;
15677;SDS011;7939;50.814;6.368;2022-07-03T09:06:12;2.97;;;2.00;;
15677;SDS011;7939;50.814;6.368;2022-07-03T09:08:39;2.80;;;1.50;;
15677;SDS011;7939;50.814;6.368;2022-07-03T09:11:07;3.97;;;1.98;;
15677;SDS011;7939;50.814;6.368;2022-07-03T09:13:34;2.08;;;1.70;;
15677;SDS011;7939;50.814;6.368;2022-07-03T09:16:02;5.78;;;2.00;;
15677;SDS011;7939;50.814;6.368;2022-07-03T09:18:36;3.35;;;2.35;;
15677;SDS011;7939;50.814;6.368;2022-07-03T09:21:05;2.45;;;1.80;;
15677;SDS011;7939;50.814;6.368;2022-07-03T09:23:37;2.95;;;1.63;;
15677;SDS011;7939;50.814;6.368;2022-07-03T09:26:05;3.17;;;1.63;;
15677;SDS011;7939;50.814;6.368;2022-07-03T09:28:46;3.35;;;1.98;;
15677;SDS011;7939;50.814;6.368;2022-07-03T09:31:18;3.97;;;1.77;;
15677;SDS011;7939;50.814;6.368;2022-07-03T09:33:50;2.25;;;1.80;;
15677;SDS011;7939;50.814;6.368;2022-07-03T09:36:22;2.75;;;1.70;;
15677;SDS011;7939;50.814;6.368;2022-07-03T09:39:10;2.15;;;1.80;;
15677;SDS011;7939;50.814;6.368;2022-07-03T09:41:50;3.33;;;2.30;;
15677;SDS011;7939;50.814;6.368;2022-07-03T09:44:27;3.58;;;2.03;;
15677;SDS011;7939;50.814;6.368;2022-07-03T09:47:06;1.88;;;1.40;;
15677;SDS011;7939;50.814;6.368;2022-07-03T09:49:43;3.38;;;1.48;;
15677;SDS011;7939;50.814;6.368;2022-07-03T09:52:32;4.03;;;1.60;;
15677;SDS011;7939;50.814;6.368;2022-07-03T09:55:13;5.07;;;2.10;;
15677;SDS011;7939;50.814;6.368;2022-07-03T09:57:41;2.00;;;1.77;;
15677;SDS011;7939;50.814;6.368;2022-07-03T10:00:19;3.78;;;1.83;;
15677;SDS011;7939;50.814;6.368;2022-07-03T10:05:31;6.22;;;1.90;;
15677;SDS011;7939;50.814;6.368;2022-07-03T10:08:00;2.90;;;1.38;;
15677;SDS011;7939;50.814;6.368;2022-07-03T10:10:28;3.38;;;1.65;;
15677;SDS011;7939;50.814;6.368;2022-07-03T10:12:56;3.85;;;2.00;;
15677;SDS011;7939;50.814;6.368;2022-07-03T10:15:24;3.38;;;1.85;;
15677;SDS011;7939;50.814;6.368;2022-07-03T10:17:53;3.58;;;2.00;;
15677;SDS011;7939;50.814;6.368;2022-07-03T10:20:27;2.92;;;1.40;;
15677;SDS011;7939;50.814;6.368;2022-07-03T10:22:55;3.72;;;1.40;;
15677;SDS011;7939;50.814;6.368;2022-07-03T10:25:22;2.50;;;1.40;;
15677;SDS011;7939;50.814;6.368;2022-07-03T10:27:50;3.65;;;1.67;;
15677;SDS011;7939;50.814;6.368;2022-07-03T10:30:17;4.55;;;1.73;;
15677;SDS011;7939;50.814;6.368;2022-07-03T10:32:45;2.95;;;1.67;;
15677;SDS011;7939;50.814;6.368;2022-07-03T10:35:13;3.20;;;1.67;;
15677;SDS011;7939;50.814;6.368;2022-07-03T10:37:56;3.38;;;1.45;;
15677;SDS011;7939;50.814;6.368;2022-07-03T10:40:34;2.38;;;1.60;;
15677;SDS011;7939;50.814;6.368;2022-07-03T10:43:25;3.88;;;1.67;;
15677;SDS011;7939;50.814;6.368;2022-07-03T10:46:12;2.05;;;1.50;;
15677;SDS011;7939;50.814;6.368;2022-07-03T10:48:52;3.85;;;1.77;;
15677;SDS011;7939;50.814;6.368;2022-07-03T10:51:23;3.17;;;1.60;;
15677;SDS011;7939;50.814;6.368;2022-07-03T11:02:41;3.65;;;1.40;;
15677;SDS011;7939;50.814;6.368;2022-07-03T11:05:14;5.07;;;1.50;;
15677;SDS011;7939;50.814;6.368;2022-07-03T11:08:04;2.58;;;1.63;;
15677;SDS011;7939;50.814;6.368;2022-07-03T11:10:35;4.03;;;1.52;;
15677;SDS011;7939;50.814;6.368;2022-07-03T11:13:12;2.50;;;1.55;;
15677;SDS011;7939;50.814;6.368;2022-07-03T11:15:42;2.83;;;1.55;;
15677;SDS011;7939;50.814;6.368;2022-07-03T11:18:14;2.88;;;1.40;;
15677;SDS011;7939;50.814;6.368;2022-07-03T11:20:48;2.28;;;1.60;;
15677;SDS011;7939;50.814;6.368;2022-07-03T11:23:28;1.35;;;1.23;;
15677;SDS011;7939;50.814;6.368;2022-07-03T11:26:01;3.15;;;1.50;;
15677;SDS011;7939;50.814;6.368;2022-07-03T11:28:48;1.98;;;1.60;;
15677;SDS011;7939;50.814;6.368;2022-07-03T11:31:16;2.25;;;1.33;;
15677;SDS011;7939;50.814;6.368;2022-07-03T11:33:43;1.90;;;1.10;;
15677;SDS011;7939;50.814;6.368;2022-07-03T11:36:10;3.92;;;1.27;;
15677;SDS011;7939;50.814;6.368;2022-07-03T11:38:38;1.75;;;1.10;;
15677;SDS011;7939;50.814;6.368;2022-07-03T11:41:08;1.45;;;1.35;;
15677;SDS011;7939;50.814;6.368;2022-07-03T11:43:36;2.08;;;1.17;;
15677;SDS011;7939;50.814;6.368;2022-07-03T11:46:03;1.60;;;1.08;;
15677;SDS011;7939;50.814;6.368;2022-07-03T11:48:30;1.85;;;1.52;;
15677;SDS011;7939;50.814;6.368;2022-07-03T11:51:00;1.45;;;0.93;;
15677;SDS011;7939;50.814;6.368;2022-07-03T11:53:30;2.15;;;1.20;;
15677;SDS011;7939;50.814;6.368;2022-07-03T11:56:00;1.98;;;1.10;;
15677;SDS011;7939;50.814;6.368;2022-07-03T11:58:40;3.88;;;1.30;;
15677;SDS011;7939;50.814;6.368;2022-07-03T12:01:09;1.77;;;1.38;;
15677;SDS011;7939;50.814;6.368;2022-07-03T12:03:36;2.38;;;1.40;;
15677;SDS011;7939;50.814;6.368;2022-07-03T12:06:03;2.08;;;1.20;;
15677;SDS011;7939;50.814;6.368;2022-07-03T12:08:30;2.72;;;1.77;;
15677;SDS011;7939;50.814;6.368;2022-07-03T12:11:02;2.90;;;1.10;;
15677;SDS011;7939;50.814;6.368;2022-07-03T12:13:29;1.98;;;1.00;;
15677;SDS011;7939;50.814;6.368;2022-07-03T12:16:02;2.05;;;1.15;;
15677;SDS011;7939;50.814;6.368;2022-07-03T12:18:43;1.63;;;1.10;;
15677;SDS011;7939;50.814;6.368;2022-07-03T12:21:11;2.10;;;1.20;;
15677;SDS011;7939;50.814;6.368;2022-07-03T12:23:45;3.45;;;1.23;;
15677;SDS011;7939;50.814;6.368;2022-07-03T12:26:14;1.55;;;1.13;;
15677;SDS011;7939;50.814;6.368;2022-07-03T12:28:54;2.03;;;1.30;;
15677;SDS011;7939;50.814;6.368;2022-07-03T12:31:22;2.13;;;1.10;;
15677;SDS011;7939;50.814;6.368;2022-07-03T12:33:48;2.55;;;1.30;;
15677;SDS011;7939;50.814;6.368;2022-07-03T12:36:15;2.75;;;1.00;;
15677;SDS011;7939;50.814;6.368;2022-07-03T12:38:46;3.10;;;1.20;;
15677;SDS011;7939;50.814;6.368;2022-07-03T12:41:14;1.50;;;1.40;;
15677;SDS011;7939;50.814;6.368;2022-07-03T12:43:42;3.05;;;1.40;;
15677;SDS011;7939;50.814;6.368;2022-07-03T12:46:15;2.38;;;0.88;;
15677;SDS011;7939;50.814;6.368;2022-07-03T12:48:47;2.42;;;1.10;;
15677;SDS011;7939;50.814;6.368;2022-07-03T12:51:16;3.03;;;1.13;;
15677;SDS011;7939;50.814;6.368;2022-07-03T12:53:43;3.05;;;1.40;;
15677;SDS011;7939;50.814;6.368;2022-07-03T12:56:21;1.30;;;0.93;;
15677;SDS011;7939;50.814;6.368;2022-07-03T12:58:47;3.25;;;1.13;;
15677;SDS011;7939;50.814;6.368;2022-07-03T13:01:33;2.25;;;1.30;;
15677;SDS011;7939;50.814;6.368;2022-07-03T13:04:03;0.95;;;0.82;;
15677;SDS011;7939;50.814;6.368;2022-07-03T13:06:31;2.88;;;1.20;;
15677;SDS011;7939;50.814;6.368;2022-07-03T13:08:58;2.60;;;1.15;;
15677;SDS011;7939;50.814;6.368;2022-07-03T13:11:26;2.47;;;1.10;;
15677;SDS011;7939;50.814;6.368;2022-07-03T13:14:00;1.63;;;1.00;;
15677;SDS011;7939;50.814;6.368;2022-07-03T13:16:29;4.65;;;1.33;;
15677;SDS011;7939;50.814;6.368;2022-07-03T13:18:56;2.15;;;1.10;;
15677;SDS011;7939;50.814;6.368;2022-07-03T13:21:25;2.60;;;1.02;;
15677;SDS011;7939;50.814;6.368;2022-07-03T13:23:52;3.67;;;1.33;;
15677;SDS011;7939;50.814;6.368;2022-07-03T13:26:18;4.63;;;0.90;;
15677;SDS011;7939;50.814;6.368;2022-07-03T13:28:45;2.28;;;0.93;;
15677;SDS011;7939;50.814;6.368;2022-07-03T13:31:12;1.27;;;1.10;;
15677;SDS011;7939;50.814;6.368;2022-07-03T13:33:39;2.70;;;1.60;;
15677;SDS011;7939;50.814;6.368;2022-07-03T13:36:05;3.28;;;0.80;;
15677;SDS011;7939;50.814;6.368;2022-07-03T13:38:33;3.33;;;0.90;;
15677;SDS011;7939;50.814;6.368;2022-07-03T13:41:00;1.05;;;0.90;;
15677;SDS011;7939;50.814;6.368;2022-07-03T13:43:27;2.97;;;0.95;;
15677;SDS011;7939;50.814;6.368;2022-07-03T13:45:53;1.50;;;0.95;;
15677;SDS011;7939;50.814;6.368;2022-07-03T13:48:20;2.28;;;1.10;;
15677;SDS011;7939;50.814;6.368;2022-07-03T13:50:47;3.97;;;1.00;;
15677;SDS011;7939;50.814;6.368;2022-07-03T13:53:13;1.80;;;1.00;;
15677;SDS011;7939;50.814;6.368;2022-07-03T13:55:41;1.30;;;0.90;;
15677;SDS011;7939;50.814;6.368;2022-07-03T13:58:08;1.67;;;1.17;;
15677;SDS011;7939;50.814;6.368;2022-07-03T14:00:35;1.98;;;0.90;;
15677;SDS011;7939;50.814;6.368;2022-07-03T14:03:02;1.98;;;0.90;;
15677;SDS011;7939;50.814;6.368;2022-07-03T14:05:29;1.25;;;1.05;;
15677;SDS011;7939;50.814;6.368;2022-07-03T14:07:56;4.50;;;1.20;;
15677;SDS011;7939;50.814;6.368;2022-07-03T14:10:23;1.73;;;1.20;;
15677;SDS011;7939;50.814;6.368;2022-07-03T14:12:51;1.90;;;1.20;;
15677;SDS011;7939;50.814;6.368;2022-07-03T14:15:18;1.73;;;0.90;;
15677;SDS011;7939;50.814;6.368;2022-07-03T14:17:45;1.60;;;1.33;;
15677;SDS011;7939;50.814;6.368;2022-07-03T14:20:11;1.40;;;1.20;;
15677;SDS011;7939;50.814;6.368;2022-07-03T14:22:38;1.45;;;1.33;;
15677;SDS011;7939;50.814;6.368;2022-07-03T14:25:05;1.30;;;1.00;;
15677;SDS011;7939;50.814;6.368;2022-07-03T14:27:33;1.08;;;0.98;;
15677;SDS011;7939;50.814;6.368;2022-07-03T14:30:19;1.58;;;0.90;;
15677;SDS011;7939;50.814;6.368;2022-07-03T14:33:03;1.77;;;1.20;;
15677;SDS011;7939;50.814;6.368;2022-07-03T14:35:29;1.23;;;0.88;;
15677;SDS011;7939;50.814;6.368;2022-07-03T14:37:56;4.43;;;1.10;;
15677;SDS011;7939;50.814;6.368;2022-07-03T14:40:23;2.60;;;1.23;;
15677;SDS011;7939;50.814;6.368;2022-07-03T14:42:49;2.50;;;1.05;;
15677;SDS011;7939;50.814;6.368;2022-07-03T14:45:16;2.47;;;1.45;;
15677;SDS011;7939;50.814;6.368;2022-07-03T14:47:44;2.15;;;1.00;;
15677;SDS011;7939;50.814;6.368;2022-07-03T14:50:11;2.75;;;1.17;;
15677;SDS011;7939;50.814;6.368;2022-07-03T14:52:37;1.77;;;1.10;;
15677;SDS011;7939;50.814;6.368;2022-07-03T14:55:04;1.60;;;1.10;;
15677;SDS011;7939;50.814;6.368;2022-07-03T14:57:31;1.77;;;1.10;;
15677;SDS011;7939;50.814;6.368;2022-07-03T15:00:07;2.00;;;1.00;;
15677;SDS011;7939;50.814;6.368;2022-07-03T15:02:42;2.33;;;1.35;;
15677;SDS011;7939;50.814;6.368;2022-07-03T15:05:14;1.95;;;1.23;;
15677;SDS011;7939;50.814;6.368;2022-07-03T15:07:42;1.50;;;1.27;;
15677;SDS011;7939;50.814;6.368;2022-07-03T15:10:10;1.48;;;1.27;;
15677;SDS011;7939;50.814;6.368;2022-07-03T15:12:40;2.55;;;1.40;;
15677;SDS011;7939;50.814;6.368;2022-07-03T15:15:08;2.63;;;1.20;;
15677;SDS011;7939;50.814;6.368;2022-07-03T15:17:36;1.65;;;1.40;;
15677;SDS011;7939;50.814;6.368;2022-07-03T15:20:05;1.70;;;1.23;;
15677;SDS011;7939;50.814;6.368;2022-07-03T15:22:37;1.10;;;1.00;;
15677;SDS011;7939;50.814;6.368;2022-07-03T15:25:05;1.67;;;1.20;;
15677;SDS011;7939;50.814;6.368;2022-07-03T15:27:33;2.85;;;1.33;;